VLG247T LEVC-LEZL
Flight info
| Callsign | VLG247T |
|---|---|
| Flight time | 1h 3m |
| Altitude | 35000 |
| Route | ALT N851 TOSGA DCT ROLAS DCT VIBAS M985 MGA M744 MAR |
| Aircraft | A320/M-SDE3FGHIRWY/LB1 |
Departure
| Time | 2026-04-26 11:39 |
|---|---|
| Airport | Valencia Airport (LEVC) |
Arrival
| Time | 2026-04-26 12:42 |
|---|---|
| Airport | Seville Airport (LEZL) |
| Time | Latitude | Longitude | Altitude | Speed | Heading |
|---|---|---|---|---|---|
| 2026-04-26 11:17 | 39.49173 | -0.47629 | 209 ft | 0 kts | 66° |
| 2026-04-26 11:28 | 39.49171 | -0.47634 | 213 ft | 3 kts | 68° |
| 2026-04-26 11:29 | 39.49165 | -0.47666 | 209 ft | 4 kts | 100° |
| 2026-04-26 11:29 | 39.49177 | -0.47692 | 209 ft | 4 kts | 160° |
| 2026-04-26 11:29 | 39.49198 | -0.47694 | 209 ft | 1 kts | 206° |
| 2026-04-26 11:32 | 39.49193 | -0.47697 | 209 ft | 3 kts | 208° |
| 2026-04-26 11:32 | 39.49130 | -0.47746 | 214 ft | 14 kts | 203° |
| 2026-04-26 11:32 | 39.49078 | -0.47817 | 218 ft | 12 kts | 293° |
| 2026-04-26 11:33 | 39.49134 | -0.47950 | 215 ft | 19 kts | 294° |
| 2026-04-26 11:33 | 39.49180 | -0.48099 | 217 ft | 15 kts | 264° |
| 2026-04-26 11:33 | 39.49152 | -0.48213 | 214 ft | 15 kts | 293° |
| 2026-04-26 11:33 | 39.49200 | -0.48338 | 211 ft | 16 kts | 295° |
| 2026-04-26 11:34 | 39.49254 | -0.48477 | 214 ft | 18 kts | 296° |
| 2026-04-26 11:34 | 39.49313 | -0.48633 | 212 ft | 20 kts | 294° |
| 2026-04-26 11:34 | 39.49379 | -0.48806 | 209 ft | 23 kts | 297° |
| 2026-04-26 11:34 | 39.49452 | -0.49004 | 213 ft | 26 kts | 296° |
| 2026-04-26 11:35 | 39.49528 | -0.49199 | 211 ft | 16 kts | 297° |
| 2026-04-26 11:35 | 39.49585 | -0.49339 | 213 ft | 19 kts | 297° |
| 2026-04-26 11:35 | 39.49646 | -0.49511 | 211 ft | 23 kts | 295° |
| 2026-04-26 11:35 | 39.49715 | -0.49692 | 213 ft | 20 kts | 296° |
| 2026-04-26 11:36 | 39.49769 | -0.49834 | 218 ft | 17 kts | 296° |
| 2026-04-26 11:36 | 39.49795 | -0.49949 | 215 ft | 10 kts | 243° |
| 2026-04-26 11:36 | 39.49739 | -0.49989 | 215 ft | 9 kts | 201° |
| 2026-04-26 11:36 | 39.49695 | -0.50017 | 212 ft | 7 kts | 206° |
| 2026-04-26 11:37 | 39.49651 | -0.50037 | 213 ft | 7 kts | 170° |
| 2026-04-26 11:37 | 39.49632 | -0.50006 | 212 ft | 0 kts | 115° |
| 2026-04-26 11:38 | 39.49604 | -0.49929 | 213 ft | 37 kts | 115° |
| 2026-04-26 11:38 | 39.49384 | -0.49349 | 212 ft | 103 kts | 116° |
| 2026-04-26 11:38 | 39.48992 | -0.48313 | 209 ft | 151 kts | 116° |
| 2026-04-26 11:38 | 39.48484 | -0.46973 | 461 ft | 172 kts | 117° |
| 2026-04-26 11:39 | 39.47920 | -0.45575 | 1013 ft | 179 kts | 117° |
| 2026-04-26 11:39 | 39.47332 | -0.44106 | 1627 ft | 187 kts | 117° |
| 2026-04-26 11:39 | 39.46655 | -0.42605 | 2109 ft | 199 kts | 123° |
| 2026-04-26 11:39 | 39.45794 | -0.41142 | 2639 ft | 209 kts | 128° |
| 2026-04-26 11:40 | 39.44817 | -0.39651 | 3025 ft | 228 kts | 129° |
| 2026-04-26 11:40 | 39.43742 | -0.37999 | 3461 ft | 252 kts | 128° |
| 2026-04-26 11:40 | 39.42606 | -0.36215 | 4312 ft | 260 kts | 127° |
| 2026-04-26 11:40 | 39.41464 | -0.34380 | 5379 ft | 263 kts | 127° |
| 2026-04-26 11:41 | 39.40298 | -0.32530 | 6377 ft | 267 kts | 132° |
| 2026-04-26 11:42 | 39.30840 | -0.42110 | 11135 ft | 350 kts | 255° |
| 2026-04-26 11:43 | 39.30358 | -0.45232 | 11738 ft | 358 kts | 260° |
| 2026-04-26 11:43 | 39.29592 | -0.48287 | 12435 ft | 361 kts | 239° |
| 2026-04-26 11:43 | 39.27961 | -0.50731 | 13100 ft | 362 kts | 215° |
| 2026-04-26 11:43 | 39.25696 | -0.52093 | 13745 ft | 361 kts | 189° |
| 2026-04-26 11:44 | 39.23210 | -0.52132 | 14366 ft | 359 kts | 165° |
| 2026-04-26 11:44 | 39.20865 | -0.51041 | 14994 ft | 360 kts | 155° |
| 2026-04-26 11:44 | 39.18500 | -0.49921 | 15606 ft | 365 kts | 160° |
| 2026-04-26 11:44 | 39.16031 | -0.49079 | 16205 ft | 370 kts | 166° |
| 2026-04-26 11:45 | 39.13470 | -0.48578 | 16800 ft | 375 kts | 172° |
| 2026-04-26 11:45 | 39.10845 | -0.48447 | 17372 ft | 380 kts | 179° |
| 2026-04-26 11:45 | 39.08225 | -0.48661 | 17937 ft | 385 kts | 182° |
| 2026-04-26 11:45 | 39.05549 | -0.48946 | 18516 ft | 388 kts | 182° |
| 2026-04-26 11:46 | 39.02847 | -0.49233 | 19101 ft | 391 kts | 182° |
| 2026-04-26 11:46 | 39.00125 | -0.49517 | 19678 ft | 394 kts | 182° |
| 2026-04-26 11:46 | 38.97384 | -0.49799 | 20258 ft | 397 kts | 182° |
| 2026-04-26 11:46 | 38.94624 | -0.50080 | 20794 ft | 400 kts | 182° |
| 2026-04-26 11:47 | 38.91839 | -0.50364 | 21308 ft | 403 kts | 182° |
| 2026-04-26 11:47 | 38.89035 | -0.50651 | 21809 ft | 405 kts | 182° |
| 2026-04-26 11:47 | 38.86215 | -0.50944 | 22292 ft | 408 kts | 182° |
| 2026-04-26 11:47 | 38.83379 | -0.51239 | 22750 ft | 410 kts | 182° |
| 2026-04-26 11:48 | 38.80522 | -0.51536 | 23204 ft | 413 kts | 183° |
| 2026-04-26 11:48 | 38.77647 | -0.51834 | 23655 ft | 416 kts | 182° |
| 2026-04-26 11:48 | 38.74755 | -0.52128 | 24100 ft | 418 kts | 182° |
| 2026-04-26 11:48 | 38.71846 | -0.52421 | 24523 ft | 421 kts | 182° |
| 2026-04-26 11:49 | 38.68919 | -0.52715 | 24948 ft | 424 kts | 182° |
| 2026-04-26 11:49 | 38.65968 | -0.53013 | 25372 ft | 426 kts | 182° |
| 2026-04-26 11:49 | 38.63005 | -0.53315 | 25787 ft | 428 kts | 182° |
| 2026-04-26 11:49 | 38.60025 | -0.53623 | 26183 ft | 431 kts | 182° |
| 2026-04-26 11:50 | 38.57030 | -0.53938 | 26573 ft | 433 kts | 182° |
| 2026-04-26 11:50 | 38.54017 | -0.54254 | 26956 ft | 436 kts | 182° |
| 2026-04-26 11:50 | 38.50986 | -0.54566 | 27330 ft | 438 kts | 182° |
| 2026-04-26 11:50 | 38.47941 | -0.54873 | 27705 ft | 440 kts | 182° |
| 2026-04-26 11:51 | 38.44878 | -0.55181 | 28074 ft | 442 kts | 182° |
| 2026-04-26 11:51 | 38.41806 | -0.55493 | 28432 ft | 444 kts | 182° |
| 2026-04-26 11:51 | 38.38711 | -0.55809 | 28772 ft | 447 kts | 182° |
| 2026-04-26 11:51 | 38.35607 | -0.56142 | 29125 ft | 450 kts | 185° |
| 2026-04-26 11:52 | 38.32527 | -0.56971 | 29450 ft | 455 kts | 196° |
| 2026-04-26 11:52 | 38.30570 | -0.57946 | 29670 ft | 459 kts | 204° |
| 2026-04-26 11:52 | 38.26971 | -0.60927 | 30086 ft | 466 kts | 220° |
| 2026-04-26 11:52 | 38.24752 | -0.63951 | 30400 ft | 470 kts | 233° |
| 2026-04-26 11:53 | 38.23063 | -0.67502 | 30804 ft | 470 kts | 244° |
| 2026-04-26 11:53 | 38.21724 | -0.71230 | 31232 ft | 469 kts | 245° |
| 2026-04-26 11:53 | 38.20367 | -0.74995 | 31665 ft | 468 kts | 245° |
| 2026-04-26 11:54 | 38.17644 | -0.82494 | 32519 ft | 467 kts | 245° |
| 2026-04-26 11:54 | 38.16282 | -0.86233 | 32931 ft | 466 kts | 245° |
| 2026-04-26 11:54 | 38.14924 | -0.89961 | 33352 ft | 465 kts | 245° |
| 2026-04-26 11:54 | 38.13568 | -0.93689 | 33749 ft | 465 kts | 245° |
| 2026-04-26 11:55 | 38.12211 | -0.97413 | 34164 ft | 464 kts | 245° |
| 2026-04-26 11:55 | 38.10859 | -1.01127 | 34583 ft | 463 kts | 245° |
| 2026-04-26 11:55 | 38.09508 | -1.04830 | 35000 ft | 462 kts | 245° |
| 2026-04-26 11:55 | 38.08157 | -1.08523 | 35135 ft | 461 kts | 245° |
| 2026-04-26 11:56 | 38.06802 | -1.12218 | 35167 ft | 463 kts | 245° |
| 2026-04-26 11:56 | 38.04086 | -1.19625 | 35165 ft | 463 kts | 245° |
| 2026-04-26 11:57 | 38.01368 | -1.27047 | 35166 ft | 464 kts | 245° |
| 2026-04-26 11:57 | 37.98638 | -1.34459 | 35165 ft | 464 kts | 245° |
| 2026-04-26 11:58 | 37.95914 | -1.41842 | 35161 ft | 461 kts | 245° |
| 2026-04-26 11:58 | 37.93212 | -1.49149 | 35158 ft | 461 kts | 245° |
| 2026-04-26 11:59 | 37.90474 | -1.56510 | 35156 ft | 462 kts | 245° |
| 2026-04-26 11:59 | 37.87731 | -1.63877 | 35157 ft | 463 kts | 245° |
| 2026-04-26 12:00 | 37.84987 | -1.71245 | 35158 ft | 463 kts | 245° |
| 2026-04-26 12:00 | 37.82230 | -1.78612 | 35156 ft | 463 kts | 245° |
| 2026-04-26 12:01 | 37.79471 | -1.85980 | 35156 ft | 464 kts | 245° |
| 2026-04-26 12:01 | 37.76705 | -1.93346 | 35154 ft | 464 kts | 245° |
| 2026-04-26 12:02 | 37.73931 | -2.00716 | 35150 ft | 464 kts | 245° |
| 2026-04-26 12:02 | 37.71152 | -2.08072 | 35147 ft | 464 kts | 245° |
| 2026-04-26 12:03 | 37.68357 | -2.15422 | 35148 ft | 464 kts | 245° |
| 2026-04-26 12:03 | 37.65570 | -2.22765 | 35150 ft | 464 kts | 245° |
| 2026-04-26 12:04 | 37.62804 | -2.30051 | 35150 ft | 463 kts | 245° |
| 2026-04-26 12:04 | 37.60022 | -2.37383 | 35152 ft | 462 kts | 245° |
| 2026-04-26 12:05 | 37.57238 | -2.44682 | 35147 ft | 461 kts | 245° |
| 2026-04-26 12:05 | 37.54450 | -2.51952 | 35138 ft | 460 kts | 245° |
| 2026-04-26 12:06 | 37.51667 | -2.59211 | 35137 ft | 459 kts | 245° |
| 2026-04-26 12:06 | 37.48886 | -2.66448 | 35141 ft | 459 kts | 245° |
| 2026-04-26 12:07 | 37.46106 | -2.73665 | 35134 ft | 458 kts | 245° |
| 2026-04-26 12:07 | 37.43326 | -2.80866 | 35140 ft | 457 kts | 246° |
| 2026-04-26 12:08 | 37.41571 | -2.88425 | 35134 ft | 453 kts | 264° |
| 2026-04-26 12:08 | 37.41277 | -2.96314 | 35128 ft | 452 kts | 269° |
| 2026-04-26 12:09 | 37.41058 | -3.04210 | 35129 ft | 452 kts | 269° |
| 2026-04-26 12:09 | 37.40821 | -3.12110 | 35125 ft | 451 kts | 269° |
| 2026-04-26 12:10 | 37.40580 | -3.19993 | 35125 ft | 451 kts | 269° |
| 2026-04-26 12:10 | 37.40337 | -3.27881 | 35122 ft | 451 kts | 269° |
| 2026-04-26 12:11 | 37.40102 | -3.35769 | 35120 ft | 451 kts | 269° |
| 2026-04-26 12:11 | 37.39860 | -3.43652 | 35113 ft | 451 kts | 269° |
| 2026-04-26 12:12 | 37.39602 | -3.51536 | 35113 ft | 451 kts | 269° |
| 2026-04-26 12:12 | 37.38879 | -3.59369 | 35111 ft | 454 kts | 255° |
| 2026-04-26 12:13 | 37.36232 | -3.66490 | 35110 ft | 456 kts | 235° |
| 2026-04-26 12:13 | 37.31994 | -3.72418 | 35108 ft | 457 kts | 226° |
| 2026-04-26 12:14 | 37.27552 | -3.78132 | 35111 ft | 457 kts | 226° |
| 2026-04-26 12:14 | 37.23113 | -3.83841 | 35116 ft | 457 kts | 226° |
| 2026-04-26 12:14 | 37.20892 | -3.86700 | 35010 ft | 458 kts | 226° |
| 2026-04-26 12:15 | 37.18673 | -3.89550 | 34758 ft | 457 kts | 226° |
| 2026-04-26 12:15 | 37.16451 | -3.92398 | 34294 ft | 458 kts | 226° |
| 2026-04-26 12:15 | 37.14213 | -3.95266 | 33373 ft | 460 kts | 226° |
| 2026-04-26 12:15 | 37.12007 | -3.98087 | 32913 ft | 445 kts | 226° |
| 2026-04-26 12:16 | 37.09864 | -4.00823 | 32372 ft | 436 kts | 226° |
| 2026-04-26 12:16 | 37.07751 | -4.03515 | 31835 ft | 430 kts | 226° |
| 2026-04-26 12:16 | 37.05668 | -4.06169 | 31298 ft | 425 kts | 226° |
| 2026-04-26 12:16 | 37.03613 | -4.08787 | 30772 ft | 419 kts | 226° |
| 2026-04-26 12:17 | 37.01585 | -4.11375 | 30252 ft | 414 kts | 226° |
| 2026-04-26 12:17 | 36.99585 | -4.13929 | 29748 ft | 408 kts | 226° |
| 2026-04-26 12:17 | 36.97607 | -4.16456 | 29234 ft | 406 kts | 226° |
| 2026-04-26 12:17 | 36.95632 | -4.18973 | 28724 ft | 405 kts | 226° |
| 2026-04-26 12:18 | 36.93658 | -4.21484 | 28219 ft | 405 kts | 226° |
| 2026-04-26 12:18 | 36.91682 | -4.23988 | 27712 ft | 404 kts | 226° |
| 2026-04-26 12:18 | 36.89737 | -4.26446 | 27236 ft | 403 kts | 226° |
| 2026-04-26 12:18 | 36.87773 | -4.28928 | 26752 ft | 401 kts | 226° |
| 2026-04-26 12:19 | 36.86505 | -4.30604 | 26436 ft | 400 kts | 232° |
| 2026-04-26 12:19 | 36.84665 | -4.34530 | 25829 ft | 395 kts | 251° |
| 2026-04-26 12:19 | 36.84023 | -4.37833 | 25400 ft | 390 kts | 265° |
| 2026-04-26 12:19 | 36.84037 | -4.41193 | 24965 ft | 386 kts | 279° |
| 2026-04-26 12:20 | 36.84692 | -4.44411 | 24545 ft | 381 kts | 293° |
| 2026-04-26 12:20 | 36.85863 | -4.47351 | 24135 ft | 377 kts | 299° |
| 2026-04-26 12:20 | 36.86684 | -4.49257 | 23850 ft | 375 kts | 299° |
| 2026-04-26 12:20 | 36.87925 | -4.52163 | 23418 ft | 373 kts | 299° |
| 2026-04-26 12:21 | 36.89133 | -4.55014 | 22998 ft | 370 kts | 298° |
| 2026-04-26 12:21 | 36.90311 | -4.57807 | 22565 ft | 368 kts | 298° |
| 2026-04-26 12:21 | 36.91498 | -4.60628 | 22136 ft | 365 kts | 298° |
| 2026-04-26 12:21 | 36.92675 | -4.63429 | 21683 ft | 363 kts | 298° |
| 2026-04-26 12:22 | 36.93847 | -4.66213 | 21237 ft | 361 kts | 298° |
| 2026-04-26 12:22 | 36.95013 | -4.68981 | 20777 ft | 360 kts | 298° |
| 2026-04-26 12:22 | 36.96180 | -4.71753 | 20321 ft | 359 kts | 298° |
| 2026-04-26 12:22 | 36.97343 | -4.74511 | 19861 ft | 358 kts | 298° |
| 2026-04-26 12:23 | 36.98504 | -4.77259 | 19393 ft | 357 kts | 298° |
| 2026-04-26 12:23 | 36.99664 | -4.80005 | 18920 ft | 356 kts | 298° |
| 2026-04-26 12:23 | 37.00818 | -4.82747 | 18449 ft | 355 kts | 298° |
| 2026-04-26 12:23 | 37.01966 | -4.85480 | 17973 ft | 354 kts | 298° |
| 2026-04-26 12:24 | 37.03107 | -4.88205 | 17501 ft | 353 kts | 298° |
| 2026-04-26 12:24 | 37.04242 | -4.90919 | 17036 ft | 352 kts | 298° |
| 2026-04-26 12:24 | 37.05307 | -4.93631 | 16568 ft | 351 kts | 292° |
| 2026-04-26 12:25 | 37.06518 | -4.99531 | 15641 ft | 349 kts | 283° |
| 2026-04-26 12:25 | 37.07048 | -5.02496 | 15186 ft | 349 kts | 283° |
| 2026-04-26 12:25 | 37.07580 | -5.05455 | 14747 ft | 347 kts | 283° |
| 2026-04-26 12:25 | 37.08110 | -5.08403 | 14289 ft | 347 kts | 283° |
| 2026-04-26 12:26 | 37.08636 | -5.11346 | 13809 ft | 346 kts | 282° |
| 2026-04-26 12:26 | 37.09161 | -5.14288 | 13351 ft | 346 kts | 282° |
| 2026-04-26 12:26 | 37.09681 | -5.17225 | 12922 ft | 344 kts | 282° |
| 2026-04-26 12:26 | 37.10198 | -5.20150 | 12472 ft | 344 kts | 282° |
| 2026-04-26 12:27 | 37.10712 | -5.23071 | 11979 ft | 340 kts | 282° |
| 2026-04-26 12:27 | 37.11215 | -5.25933 | 11555 ft | 335 kts | 282° |
| 2026-04-26 12:27 | 37.11714 | -5.28763 | 11143 ft | 330 kts | 282° |
| 2026-04-26 12:27 | 37.12206 | -5.31547 | 10716 ft | 327 kts | 282° |
| 2026-04-26 12:28 | 37.12698 | -5.34336 | 10274 ft | 329 kts | 282° |
| 2026-04-26 12:28 | 37.13191 | -5.37144 | 9842 ft | 331 kts | 282° |
| 2026-04-26 12:28 | 37.13685 | -5.39963 | 9433 ft | 331 kts | 282° |
| 2026-04-26 12:28 | 37.14177 | -5.42776 | 9000 ft | 330 kts | 282° |
| 2026-04-26 12:29 | 37.14672 | -5.45592 | 8549 ft | 331 kts | 282° |
| 2026-04-26 12:29 | 37.15156 | -5.48348 | 8360 ft | 321 kts | 282° |
| 2026-04-26 12:29 | 37.16065 | -5.53557 | 7670 ft | 298 kts | 282° |
| 2026-04-26 12:30 | 37.16502 | -5.56073 | 7116 ft | 294 kts | 282° |
| 2026-04-26 12:30 | 37.16939 | -5.58588 | 6601 ft | 296 kts | 282° |
| 2026-04-26 12:30 | 37.17374 | -5.61093 | 6158 ft | 292 kts | 282° |
| 2026-04-26 12:31 | 37.18215 | -5.66008 | 5830 ft | 288 kts | 282° |
| 2026-04-26 12:31 | 37.18628 | -5.68460 | 5721 ft | 288 kts | 282° |
| 2026-04-26 12:31 | 37.19043 | -5.70910 | 5631 ft | 287 kts | 282° |
| 2026-04-26 12:31 | 37.19459 | -5.73358 | 5527 ft | 287 kts | 283° |
| 2026-04-26 12:32 | 37.19872 | -5.75798 | 5406 ft | 286 kts | 282° |
| 2026-04-26 12:32 | 37.20283 | -5.78242 | 5310 ft | 287 kts | 282° |
| 2026-04-26 12:32 | 37.21099 | -5.83132 | 5105 ft | 286 kts | 282° |
| 2026-04-26 12:33 | 37.21509 | -5.85576 | 4996 ft | 286 kts | 282° |
| 2026-04-26 12:33 | 37.21919 | -5.88014 | 4881 ft | 285 kts | 282° |
| 2026-04-26 12:33 | 37.22328 | -5.90449 | 4781 ft | 285 kts | 282° |
| 2026-04-26 12:33 | 37.22736 | -5.92885 | 4676 ft | 285 kts | 282° |
| 2026-04-26 12:34 | 37.23141 | -5.95312 | 4574 ft | 283 kts | 282° |
| 2026-04-26 12:34 | 37.23537 | -5.97694 | 4472 ft | 283 kts | 282° |
| 2026-04-26 12:34 | 37.23967 | -6.00097 | 4369 ft | 282 kts | 289° |
| 2026-04-26 12:34 | 37.24901 | -6.02230 | 4247 ft | 279 kts | 313° |
| 2026-04-26 12:35 | 37.26400 | -6.03706 | 4113 ft | 273 kts | 337° |
| 2026-04-26 12:35 | 37.28148 | -6.04644 | 3985 ft | 274 kts | 340° |
| 2026-04-26 12:35 | 37.29893 | -6.05550 | 3864 ft | 269 kts | 340° |
| 2026-04-26 12:35 | 37.31600 | -6.06437 | 3721 ft | 257 kts | 340° |
| 2026-04-26 12:36 | 37.33191 | -6.07270 | 3597 ft | 240 kts | 340° |
| 2026-04-26 12:36 | 37.34689 | -6.08061 | 3469 ft | 227 kts | 340° |
| 2026-04-26 12:36 | 37.36094 | -6.08808 | 3349 ft | 213 kts | 340° |
| 2026-04-26 12:36 | 37.37423 | -6.09532 | 3241 ft | 203 kts | 339° |
| 2026-04-26 12:37 | 37.38706 | -6.10229 | 3136 ft | 201 kts | 339° |
| 2026-04-26 12:37 | 37.39989 | -6.10830 | 3008 ft | 193 kts | 349° |
| 2026-04-26 12:37 | 37.41269 | -6.10878 | 2903 ft | 177 kts | 30° |
| 2026-04-26 12:37 | 37.42014 | -6.09821 | 2856 ft | 161 kts | 82° |
| 2026-04-26 12:38 | 37.41825 | -6.08475 | 2764 ft | 160 kts | 109° |
| 2026-04-26 12:38 | 37.41692 | -6.07078 | 2549 ft | 165 kts | 83° |
| 2026-04-26 12:38 | 37.41748 | -6.05656 | 2345 ft | 162 kts | 91° |
| 2026-04-26 12:38 | 37.41741 | -6.04240 | 2121 ft | 160 kts | 90° |
| 2026-04-26 12:39 | 37.41740 | -6.02861 | 1903 ft | 154 kts | 89° |
| 2026-04-26 12:39 | 37.41746 | -6.01552 | 1714 ft | 147 kts | 89° |
| 2026-04-26 12:39 | 37.41750 | -6.00285 | 1519 ft | 143 kts | 90° |
| 2026-04-26 12:39 | 37.41755 | -5.99066 | 1327 ft | 140 kts | 89° |
| 2026-04-26 12:40 | 37.41760 | -5.97830 | 1146 ft | 138 kts | 89° |
| 2026-04-26 12:40 | 37.41768 | -5.96625 | 931 ft | 137 kts | 89° |
| 2026-04-26 12:40 | 37.41782 | -5.95441 | 698 ft | 137 kts | 88° |
| 2026-04-26 12:40 | 37.41779 | -5.94251 | 582 ft | 136 kts | 90° |
| 2026-04-26 12:41 | 37.41783 | -5.93041 | 418 ft | 138 kts | 89° |
| 2026-04-26 12:41 | 37.41780 | -5.91848 | 220 ft | 136 kts | 90° |
| 2026-04-26 12:41 | 37.41790 | -5.90659 | 97 ft | 132 kts | 90° |
| 2026-04-26 12:41 | 37.41794 | -5.89632 | 98 ft | 97 kts | 89° |
| 2026-04-26 12:42 | 37.41799 | -5.89002 | 103 ft | 58 kts | 90° |
| 2026-04-26 12:42 | 37.41817 | -5.88763 | 104 ft | 6 kts | 4° |
| 2026-04-26 12:42 | 37.41875 | -5.88767 | 104 ft | 11 kts | 5° |
| 2026-04-26 12:42 | 37.41964 | -5.88754 | 103 ft | 14 kts | 346° |
| 2026-04-26 12:43 | 37.41985 | -5.88877 | 102 ft | 17 kts | 269° |
| 2026-04-26 12:43 | 37.41984 | -5.89017 | 101 ft | 18 kts | 270° |
| 2026-04-26 12:43 | 37.41989 | -5.89188 | 100 ft | 22 kts | 273° |
| 2026-04-26 12:43 | 37.41984 | -5.89393 | 99 ft | 26 kts | 265° |
| 2026-04-26 12:44 | 37.41983 | -5.89609 | 98 ft | 26 kts | 272° |
| 2026-04-26 12:44 | 37.41979 | -5.89823 | 96 ft | 14 kts | 274° |
| 2026-04-26 12:44 | 37.42037 | -5.89905 | 95 ft | 13 kts | 339° |
| 2026-04-26 12:44 | 37.42111 | -5.89932 | 94 ft | 9 kts | 360° |
| 2026-04-26 12:45 | 37.42168 | -5.89880 | 94 ft | 9 kts | 44° |
| 2026-04-26 12:45 | 37.42188 | -5.89857 | 94 ft | 3 kts | 33° |
| 2026-04-26 12:45 | 37.42207 | -5.89866 | 94 ft | 4 kts | 323° |
| 2026-04-26 12:45 | 37.42229 | -5.89893 | 94 ft | 4 kts | 315° |
| 2026-04-26 12:46 | 37.42245 | -5.89914 | 94 ft | 3 kts | 314° |